sensor_id;sensor_type;location;lat;lon;timestamp;pressure;altitude;pressure_sealevel;temperature;humidity
29903;BME280;30288;50.514;9.678;2023-05-17T00:01:36;99215.41;;;4.31;100.00
29903;BME280;30288;50.514;9.678;2023-05-17T00:03:41;99217.03;;;4.23;100.00
29903;BME280;30288;50.514;9.678;2023-05-17T00:05:47;99214.53;;;4.22;100.00
29903;BME280;30288;50.514;9.678;2023-05-17T00:07:52;99216.97;;;4.11;100.00
29903;BME280;30288;50.514;9.678;2023-05-17T00:09:57;99216.91;;;4.02;100.00
29903;BME280;30288;50.514;9.678;2023-05-17T00:12:04;99219.31;;;3.88;100.00
29903;BME280;30288;50.514;9.678;2023-05-17T00:14:09;99211.84;;;3.90;100.00
29903;BME280;30288;50.514;9.678;2023-05-17T00:16:17;99211.78;;;3.78;100.00
29903;BME280;30288;50.514;9.678;2023-05-17T00:18:22;99217.63;;;3.80;100.00
29903;BME280;30288;50.514;9.678;2023-05-17T00:20:28;99213.41;;;3.73;100.00
29903;BME280;30288;50.514;9.678;2023-05-17T00:22:33;99215.91;;;3.74;100.00
29903;BME280;30288;50.514;9.678;2023-05-17T00:24:38;99207.53;;;3.65;100.00
29903;BME280;30288;50.514;9.678;2023-05-17T00:26:43;99210.84;;;3.61;100.00
29903;BME280;30288;50.514;9.678;2023-05-17T00:28:49;99217.38;;;3.49;100.00
29903;BME280;30288;50.514;9.678;2023-05-17T00:30:54;99218.94;;;3.38;100.00
29903;BME280;30288;50.514;9.678;2023-05-17T00:33:02;99219.06;;;3.53;100.00
29903;BME280;30288;50.514;9.678;2023-05-17T00:35:08;99211.53;;;3.44;100.00
29903;BME280;30288;50.514;9.678;2023-05-17T00:37:13;99217.28;;;3.37;100.00
29903;BME280;30288;50.514;9.678;2023-05-17T00:39:19;99218.84;;;3.26;100.00
29903;BME280;30288;50.514;9.678;2023-05-17T00:41:24;99227.06;;;3.21;100.00
29903;BME280;30288;50.514;9.678;2023-05-17T00:43:30;99217.97;;;3.24;100.00
29903;BME280;30288;50.514;9.678;2023-05-17T00:45:35;99221.34;;;3.29;100.00
29903;BME280;30288;50.514;9.678;2023-05-17T00:47:41;99212.25;;;3.34;100.00
29903;BME280;30288;50.514;9.678;2023-05-17T00:49:50;99221.34;;;3.29;100.00
29903;BME280;30288;50.514;9.678;2023-05-17T00:51:55;99216.31;;;3.22;100.00
29903;BME280;30288;50.514;9.678;2023-05-17T00:54:01;99213.06;;;3.30;100.00
29903;BME280;30288;50.514;9.678;2023-05-17T00:56:07;99217.13;;;3.24;100.00
29903;BME280;30288;50.514;9.678;2023-05-17T00:58:13;99216.34;;;3.26;100.00
29903;BME280;30288;50.514;9.678;2023-05-17T01:00:20;99223.66;;;3.08;100.00
29903;BME280;30288;50.514;9.678;2023-05-17T01:02:25;99226.88;;;3.01;100.00
29903;BME280;30288;50.514;9.678;2023-05-17T01:04:31;99224.41;;;3.01;100.00
29903;BME280;30288;50.514;9.678;2023-05-17T01:06:40;99226.03;;;2.97;100.00
29903;BME280;30288;50.514;9.678;2023-05-17T01:08:45;99232.66;;;3.00;100.00
29903;BME280;30288;50.514;9.678;2023-05-17T01:11:00;99227.66;;;2.94;100.00
29903;BME280;30288;50.514;9.678;2023-05-17T01:13:16;99235.84;;;2.84;100.00
29903;BME280;30288;50.514;9.678;2023-05-17T01:15:26;99221.66;;;2.75;100.00
29903;BME280;30288;50.514;9.678;2023-05-17T01:17:51;99224.13;;;2.77;100.00
29903;BME280;30288;50.514;9.678;2023-05-17T01:20:04;99228.31;;;2.81;100.00
29903;BME280;30288;50.514;9.678;2023-05-17T01:22:30;99224.09;;;2.71;100.00
29903;BME280;30288;50.514;9.678;2023-05-17T01:25:00;99230.78;;;2.78;100.00
29903;BME280;30288;50.514;9.678;2023-05-17T01:27:14;99240.59;;;2.66;100.00
29903;BME280;30288;50.514;9.678;2023-05-17T01:29:22;99240.59;;;2.66;100.00
29903;BME280;30288;50.514;9.678;2023-05-17T01:31:29;99241.53;;;2.75;100.00
29903;BME280;30288;50.514;9.678;2023-05-17T01:33:35;99239.81;;;2.70;100.00
29903;BME280;30288;50.514;9.678;2023-05-17T01:35:42;99241.31;;;2.57;100.00
29903;BME280;30288;50.514;9.678;2023-05-17T01:37:47;99242.09;;;2.51;100.00
29903;BME280;30288;50.514;9.678;2023-05-17T01:39:54;99256.84;;;2.39;100.00
29903;BME280;30288;50.514;9.678;2023-05-17T01:42:07;99256.81;;;2.36;100.00
29903;BME280;30288;50.514;9.678;2023-05-17T01:44:25;99254.97;;;2.23;100.00
29903;BME280;30288;50.514;9.678;2023-05-17T01:46:39;99258.41;;;2.31;100.00
29903;BME280;30288;50.514;9.678;2023-05-17T01:48:51;99256.69;;;2.27;100.00
29903;BME280;30288;50.514;9.678;2023-05-17T01:51:00;99261.59;;;2.24;100.00
29903;BME280;30288;50.514;9.678;2023-05-17T01:53:10;99261.53;;;2.18;100.00
29903;BME280;30288;50.514;9.678;2023-05-17T01:55:29;99259.13;;;2.26;100.00
29903;BME280;30288;50.514;9.678;2023-05-17T01:57:37;99270.69;;;2.24;100.00
29903;BME280;30288;50.514;9.678;2023-05-17T01:59:47;99262.31;;;2.15;100.00
29903;BME280;30288;50.514;9.678;2023-05-17T02:01:58;99268.09;;;2.13;100.00
29903;BME280;30288;50.514;9.678;2023-05-17T02:04:10;99267.28;;;2.15;100.00
29903;BME280;30288;50.514;9.678;2023-05-17T02:06:16;99271.34;;;2.09;100.00
29903;BME280;30288;50.514;9.678;2023-05-17T02:08:21;99266.31;;;2.06;100.00
29903;BME280;30288;50.514;9.678;2023-05-17T02:10:26;99273.06;;;2.13;100.00
29903;BME280;30288;50.514;9.678;2023-05-17T02:12:31;99268.16;;;2.19;100.00
29903;BME280;30288;50.514;9.678;2023-05-17T02:14:36;99276.63;;;2.32;100.00
29903;BME280;30288;50.514;9.678;2023-05-17T02:16:44;99280.94;;;2.45;100.00
29903;BME280;30288;50.514;9.678;2023-05-17T02:18:50;99283.69;;;2.64;100.00
29903;BME280;30288;50.514;9.678;2023-05-17T02:20:55;99275.34;;;2.62;100.00
29903;BME280;30288;50.514;9.678;2023-05-17T02:23:00;99285.34;;;2.67;100.00
29903;BME280;30288;50.514;9.678;2023-05-17T02:25:07;99283.78;;;2.71;100.00
29903;BME280;30288;50.514;9.678;2023-05-17T02:27:14;99286.25;;;2.71;100.00
29903;BME280;30288;50.514;9.678;2023-05-17T02:29:19;99276.63;;;3.01;100.00
29903;BME280;30288;50.514;9.678;2023-05-17T02:31:24;99280.72;;;2.96;100.00
29903;BME280;30288;50.514;9.678;2023-05-17T02:33:33;99280.69;;;2.93;100.00
29903;BME280;30288;50.514;9.678;2023-05-17T02:35:39;99285.75;;;2.99;100.00
29903;BME280;30288;50.514;9.678;2023-05-17T02:37:46;99278.28;;;2.97;100.00
29903;BME280;30288;50.514;9.678;2023-05-17T02:39:53;99274.97;;;3.00;100.00
29903;BME280;30288;50.514;9.678;2023-05-17T02:41:58;99282.53;;;3.09;100.00
29903;BME280;30288;50.514;9.678;2023-05-17T02:44:03;99279.28;;;3.16;100.00
29903;BME280;30288;50.514;9.678;2023-05-17T02:46:09;99287.63;;;3.18;100.00
29903;BME280;30288;50.514;9.678;2023-05-17T02:48:14;99285.94;;;3.16;100.00
29903;BME280;30288;50.514;9.678;2023-05-17T02:50:22;99279.31;;;3.19;100.00
29903;BME280;30288;50.514;9.678;2023-05-17T02:52:28;99277.88;;;3.39;100.00
29903;BME280;30288;50.514;9.678;2023-05-17T02:54:34;99274.47;;;3.31;100.00
29903;BME280;30288;50.514;9.678;2023-05-17T02:56:39;99284.28;;;3.19;100.00
29903;BME280;30288;50.514;9.678;2023-05-17T02:58:45;99282.50;;;3.06;100.00
29903;BME280;30288;50.514;9.678;2023-05-17T03:00:51;99280.69;;;2.93;100.00
29903;BME280;30288;50.514;9.678;2023-05-17T03:02:57;99277.44;;;2.97;100.00
29903;BME280;30288;50.514;9.678;2023-05-17T03:05:04;99275.66;;;2.87;100.00
29903;BME280;30288;50.514;9.678;2023-05-17T03:07:16;99290.56;;;2.85;100.00
29903;BME280;30288;50.514;9.678;2023-05-17T03:09:21;99290.50;;;2.81;100.00
29903;BME280;30288;50.514;9.678;2023-05-17T03:11:26;99290.38;;;2.72;100.00
29903;BME280;30288;50.514;9.678;2023-05-17T03:13:33;99291.94;;;2.63;100.00
29903;BME280;30288;50.514;9.678;2023-05-17T03:15:39;99290.44;;;2.75;100.00
29903;BME280;30288;50.514;9.678;2023-05-17T03:17:44;99292.16;;;2.79;100.00
29903;BME280;30288;50.514;9.678;2023-05-17T03:19:51;99293.84;;;2.83;100.00
29903;BME280;30288;50.514;9.678;2023-05-17T03:22:00;99289.06;;;2.98;100.00
29903;BME280;30288;50.514;9.678;2023-05-17T03:24:10;99292.34;;;2.97;100.00
29903;BME280;30288;50.514;9.678;2023-05-17T03:26:16;99296.84;;;3.30;100.00
29903;BME280;30288;50.514;9.678;2023-05-17T03:28:25;99299.38;;;3.34;100.00
29903;BME280;30288;50.514;9.678;2023-05-17T03:30:32;99304.34;;;3.31;100.00
29903;BME280;30288;50.514;9.678;2023-05-17T03:32:38;99303.53;;;3.34;100.00
29903;BME280;30288;50.514;9.678;2023-05-17T03:34:44;99303.63;;;3.41;100.00
29903;BME280;30288;50.514;9.678;2023-05-17T03:36:49;99303.63;;;3.44;100.00
29903;BME280;30288;50.514;9.678;2023-05-17T03:38:54;99307.88;;;3.51;100.00
29903;BME280;30288;50.514;9.678;2023-05-17T03:41:03;99304.63;;;3.62;100.00
29903;BME280;30288;50.514;9.678;2023-05-17T03:43:09;99304.63;;;3.62;100.00
29903;BME280;30288;50.514;9.678;2023-05-17T03:45:15;99301.38;;;3.66;100.00
29903;BME280;30288;50.514;9.678;2023-05-17T03:47:20;99304.75;;;3.77;100.00
29903;BME280;30288;50.514;9.678;2023-05-17T03:49:27;99308.13;;;3.82;100.00
29903;BME280;30288;50.514;9.678;2023-05-17T03:51:33;99316.53;;;3.93;100.00
29903;BME280;30288;50.514;9.678;2023-05-17T03:53:38;99311.63;;;4.02;100.00
29903;BME280;30288;50.514;9.678;2023-05-17T03:55:45;99313.34;;;4.12;100.00
29903;BME280;30288;50.514;9.678;2023-05-17T03:57:54;99310.06;;;4.19;100.00
29903;BME280;30288;50.514;9.678;2023-05-17T04:00:00;99305.13;;;4.28;100.00
29903;BME280;30288;50.514;9.678;2023-05-17T04:02:15;99313.53;;;4.43;100.00
29903;BME280;30288;50.514;9.678;2023-05-17T04:04:22;99311.94;;;4.51;100.00
29903;BME280;30288;50.514;9.678;2023-05-17T04:06:28;99306.94;;;4.51;100.00
29903;BME280;30288;50.514;9.678;2023-05-17T04:08:34;99308.63;;;4.55;100.00
29903;BME280;30288;50.514;9.678;2023-05-17T04:10:40;99308.66;;;4.59;100.00
29903;BME280;30288;50.514;9.678;2023-05-17T04:12:46;99307.00;;;4.60;100.00
29903;BME280;30288;50.514;9.678;2023-05-17T04:14:54;99310.34;;;4.71;100.00
29903;BME280;30288;50.514;9.678;2023-05-17T04:17:00;99300.34;;;4.66;100.00
29903;BME280;30288;50.514;9.678;2023-05-17T04:19:06;99302.09;;;4.75;100.00
29903;BME280;30288;50.514;9.678;2023-05-17T04:21:11;99305.38;;;4.69;100.00
29903;BME280;30288;50.514;9.678;2023-05-17T04:23:17;99313.66;;;4.61;100.00
29903;BME280;30288;50.514;9.678;2023-05-17T04:25:22;99311.94;;;4.54;100.00
29903;BME280;30288;50.514;9.678;2023-05-17T04:27:29;99314.41;;;4.52;100.00
29903;BME280;30288;50.514;9.678;2023-05-17T04:29:34;99311.13;;;4.56;100.00
29903;BME280;30288;50.514;9.678;2023-05-17T04:31:42;99315.28;;;4.56;100.00
29903;BME280;30288;50.514;9.678;2023-05-17T04:33:51;99315.31;;;4.59;100.00
29903;BME280;30288;50.514;9.678;2023-05-17T04:35:57;99306.19;;;4.61;100.00
29903;BME280;30288;50.514;9.678;2023-05-17T04:38:02;99313.75;;;4.82;100.00
29903;BME280;30288;50.514;9.678;2023-05-17T04:40:10;99321.25;;;4.87;100.00
29903;BME280;30288;50.514;9.678;2023-05-17T04:42:15;99318.78;;;4.93;100.00
29903;BME280;30288;50.514;9.678;2023-05-17T04:44:26;99318.00;;;5.03;100.00
29903;BME280;30288;50.514;9.678;2023-05-17T04:46:32;99314.72;;;5.23;100.00
29903;BME280;30288;50.514;9.678;2023-05-17T04:48:40;99325.56;;;5.30;100.00
29903;BME280;30288;50.514;9.678;2023-05-17T04:50:45;99325.56;;;5.38;100.00
29903;BME280;30288;50.514;9.678;2023-05-17T04:52:51;99319.78;;;5.52;100.00
29903;BME280;30288;50.514;9.678;2023-05-17T04:54:59;99327.31;;;5.60;100.00
29903;BME280;30288;50.514;9.678;2023-05-17T04:57:05;99333.13;;;5.72;100.00
29903;BME280;30288;50.514;9.678;2023-05-17T04:59:27;99330.69;;;5.91;100.00
29903;BME280;30288;50.514;9.678;2023-05-17T05:01:32;99325.69;;;6.07;100.00
29903;BME280;30288;50.514;9.678;2023-05-17T05:03:40;99330.69;;;6.17;100.00
29903;BME280;30288;50.514;9.678;2023-05-17T05:05:46;99332.34;;;6.30;100.00
29903;BME280;30288;50.514;9.678;2023-05-17T05:07:52;99349.00;;;6.37;100.00
29903;BME280;30288;50.514;9.678;2023-05-17T05:09:57;99350.69;;;6.29;100.00
29903;BME280;30288;50.514;9.678;2023-05-17T05:12:04;99344.81;;;6.49;100.00
29903;BME280;30288;50.514;9.678;2023-05-17T05:14:10;99348.94;;;6.61;100.00
29903;BME280;30288;50.514;9.678;2023-05-17T05:16:17;99345.59;;;6.71;100.00
29903;BME280;30288;50.514;9.678;2023-05-17T05:18:23;99358.88;;;6.91;100.00
29903;BME280;30288;50.514;9.678;2023-05-17T05:20:31;99363.88;;;7.00;100.00
29903;BME280;30288;50.514;9.678;2023-05-17T05:22:39;99362.13;;;7.18;100.00
29903;BME280;30288;50.514;9.678;2023-05-17T05:24:44;99365.47;;;7.20;100.00
29903;BME280;30288;50.514;9.678;2023-05-17T05:26:50;99366.25;;;7.29;100.00
29903;BME280;30288;50.514;9.678;2023-05-17T05:28:57;99367.06;;;7.36;100.00
29903;BME280;30288;50.514;9.678;2023-05-17T05:31:03;99372.06;;;7.39;100.00
29903;BME280;30288;50.514;9.678;2023-05-17T05:33:15;99378.63;;;7.58;100.00
29903;BME280;30288;50.514;9.678;2023-05-17T05:35:22;99384.28;;;7.89;100.00
29903;BME280;30288;50.514;9.678;2023-05-17T05:37:35;99381.75;;;7.93;100.00
29903;BME280;30288;50.514;9.678;2023-05-17T05:39:40;99381.75;;;7.97;100.00
29903;BME280;30288;50.514;9.678;2023-05-17T05:41:45;99384.94;;;8.14;100.00
29903;BME280;30288;50.514;9.678;2023-05-17T05:43:51;99391.59;;;8.21;100.00
29903;BME280;30288;50.514;9.678;2023-05-17T05:45:56;99394.91;;;8.23;100.00
29903;BME280;30288;50.514;9.678;2023-05-17T05:48:01;99393.97;;;8.39;100.00
29903;BME280;30288;50.514;9.678;2023-05-17T05:50:10;99390.59;;;8.45;100.00
29903;BME280;30288;50.514;9.678;2023-05-17T05:52:17;99393.06;;;8.49;100.00
29903;BME280;30288;50.514;9.678;2023-05-17T05:54:25;99396.22;;;8.69;100.00
29903;BME280;30288;50.514;9.678;2023-05-17T05:56:30;99397.78;;;8.79;100.00
29903;BME280;30288;50.514;9.678;2023-05-17T05:58:37;99402.75;;;8.86;100.00
29903;BME280;30288;50.514;9.678;2023-05-17T06:00:45;99400.22;;;8.86;100.00
29903;BME280;30288;50.514;9.678;2023-05-17T06:02:52;99401.69;;;9.06;100.00
29903;BME280;30288;50.514;9.678;2023-05-17T06:05:02;99410.91;;;9.03;100.00
29903;BME280;30288;50.514;9.678;2023-05-17T06:07:08;99407.47;;;9.13;100.00
29903;BME280;30288;50.514;9.678;2023-05-17T06:09:13;99409.91;;;9.19;100.00
29903;BME280;30288;50.514;9.678;2023-05-17T06:11:21;99411.47;;;9.28;100.00
29903;BME280;30288;50.514;9.678;2023-05-17T06:13:26;99411.41;;;9.34;100.00
29903;BME280;30288;50.514;9.678;2023-05-17T06:15:31;99414.81;;;9.31;100.00
29903;BME280;30288;50.514;9.678;2023-05-17T06:17:37;99414.63;;;9.45;100.00
29903;BME280;30288;50.514;9.678;2023-05-17T06:19:42;99420.44;;;9.48;100.00
29903;BME280;30288;50.514;9.678;2023-05-17T06:21:48;99416.84;;;9.68;100.00
29903;BME280;30288;50.514;9.678;2023-05-17T06:23:53;99420.84;;;9.81;100.00
29903;BME280;30288;50.514;9.678;2023-05-17T06:25:58;99422.53;;;9.83;100.00
29903;BME280;30288;50.514;9.678;2023-05-17T06:28:07;99420.59;;;9.99;100.00
29903;BME280;30288;50.514;9.678;2023-05-17T06:30:13;99422.94;;;10.11;100.00
29903;BME280;30288;50.514;9.678;2023-05-17T06:32:19;99421.72;;;10.36;100.00
29903;BME280;30288;50.514;9.678;2023-05-17T06:34:24;99419.84;;;10.49;100.00
29903;BME280;30288;50.514;9.678;2023-05-17T06:36:30;99428.94;;;10.58;100.00
29903;BME280;30288;50.514;9.678;2023-05-17T06:38:36;99422.91;;;10.68;100.00
29903;BME280;30288;50.514;9.678;2023-05-17T06:40:42;99417.63;;;10.81;100.00
29903;BME280;30288;50.514;9.678;2023-05-17T06:42:48;99425.31;;;10.74;100.00
29903;BME280;30288;50.514;9.678;2023-05-17T06:44:55;99425.31;;;10.74;100.00
29903;BME280;30288;50.514;9.678;2023-05-17T06:47:01;99430.78;;;10.97;100.00
29903;BME280;30288;50.514;9.678;2023-05-17T06:49:06;99430.78;;;10.97;100.00
29903;BME280;30288;50.514;9.678;2023-05-17T06:51:13;99441.47;;;11.08;100.00
29903;BME280;30288;50.514;9.678;2023-05-17T06:53:19;99431.53;;;11.02;100.00
29903;BME280;30288;50.514;9.678;2023-05-17T06:55:24;99436.56;;;11.02;100.00
29903;BME280;30288;50.514;9.678;2023-05-17T06:57:33;99436.50;;;11.05;100.00
29903;BME280;30288;50.514;9.678;2023-05-17T06:59:38;99438.94;;;11.08;100.00
29903;BME280;30288;50.514;9.678;2023-05-17T07:01:47;99434.44;;;11.25;100.00
29903;BME280;30288;50.514;9.678;2023-05-17T07:03:52;99443.50;;;11.35;100.00
29903;BME280;30288;50.514;9.678;2023-05-17T07:05:58;99442.03;;;11.22;100.00
29903;BME280;30288;50.514;9.678;2023-05-17T07:08:04;99444.69;;;11.16;100.00
29903;BME280;30288;50.514;9.678;2023-05-17T07:10:10;99436.69;;;11.39;100.00
29903;BME280;30288;50.514;9.678;2023-05-17T07:12:16;99439.34;;;11.31;100.00
29903;BME280;30288;50.514;9.678;2023-05-17T07:14:21;99437.25;;;11.52;100.00
29903;BME280;30288;50.514;9.678;2023-05-17T07:16:27;99438.00;;;11.55;100.00
29903;BME280;30288;50.514;9.678;2023-05-17T07:18:35;99440.28;;;11.69;100.00
29903;BME280;30288;50.514;9.678;2023-05-17T07:20:40;99444.72;;;11.56;100.00
29903;BME280;30288;50.514;9.678;2023-05-17T07:22:46;99444.03;;;11.50;100.00
29903;BME280;30288;50.514;9.678;2023-05-17T07:24:52;99452.69;;;11.36;100.00
29903;BME280;30288;50.514;9.678;2023-05-17T07:26:57;99452.22;;;11.18;100.00
29903;BME280;30288;50.514;9.678;2023-05-17T07:29:02;99441.47;;;11.08;100.00
29903;BME280;30288;50.514;9.678;2023-05-17T07:31:08;99447.66;;;10.92;100.00
29903;BME280;30288;50.514;9.678;2023-05-17T07:33:13;99448.72;;;10.79;100.00
29903;BME280;30288;50.514;9.678;2023-05-17T07:35:21;99458.75;;;10.82;100.00
29903;BME280;30288;50.514;9.678;2023-05-17T07:37:26;99460.38;;;10.86;100.00
29903;BME280;30288;50.514;9.678;2023-05-17T07:39:32;99453.75;;;10.79;100.00
29903;BME280;30288;50.514;9.678;2023-05-17T07:41:37;99460.78;;;10.62;100.00
29903;BME280;30288;50.514;9.678;2023-05-17T07:43:45;99459.00;;;10.67;100.00
29903;BME280;30288;50.514;9.678;2023-05-17T07:45:52;99461.13;;;10.91;100.00
29903;BME280;30288;50.514;9.678;2023-05-17T07:47:57;99460.03;;;11.04;100.00
29903;BME280;30288;50.514;9.678;2023-05-17T07:50:03;99463.97;;;11.19;100.00
29903;BME280;30288;50.514;9.678;2023-05-17T07:52:11;99467.13;;;11.73;100.00
29903;BME280;30288;50.514;9.678;2023-05-17T07:54:25;99468.25;;;11.98;100.00
29903;BME280;30288;50.514;9.678;2023-05-17T07:56:31;99464.66;;;12.08;100.00
29903;BME280;30288;50.514;9.678;2023-05-17T07:58:36;99469.47;;;12.20;100.00
29903;BME280;30288;50.514;9.678;2023-05-17T08:00:41;99459.91;;;12.32;100.00
29903;BME280;30288;50.514;9.678;2023-05-17T08:02:46;99457.13;;;12.78;100.00
29903;BME280;30288;50.514;9.678;2023-05-17T08:04:51;99457.03;;;13.14;100.00
29903;BME280;30288;50.514;9.678;2023-05-17T08:06:57;99452.44;;;13.87;100.00
29903;BME280;30288;50.514;9.678;2023-05-17T08:09:05;99453.47;;;13.80;100.00
29903;BME280;30288;50.514;9.678;2023-05-17T08:11:12;99445.56;;;13.63;100.00
29903;BME280;30288;50.514;9.678;2023-05-17T08:13:18;99452.59;;;13.53;100.00
29903;BME280;30288;50.514;9.678;2023-05-17T08:15:25;99456.97;;;13.47;100.00
29903;BME280;30288;50.514;9.678;2023-05-17T08:17:31;99459.22;;;12.94;100.00
29903;BME280;30288;50.514;9.678;2023-05-17T08:19:36;99459.38;;;12.88;100.00
29903;BME280;30288;50.514;9.678;2023-05-17T08:21:42;99456.06;;;12.86;100.00
29903;BME280;30288;50.514;9.678;2023-05-17T08:23:49;99456.13;;;12.83;100.00
29903;BME280;30288;50.514;9.678;2023-05-17T08:25:57;99444.03;;;12.94;100.00
29903;BME280;30288;50.514;9.678;2023-05-17T08:28:05;99445.38;;;13.07;100.00
29903;BME280;30288;50.514;9.678;2023-05-17T08:30:10;99443.53;;;13.16;100.00
29903;BME280;30288;50.514;9.678;2023-05-17T08:32:29;99443.75;;;13.06;100.00
29903;BME280;30288;50.514;9.678;2023-05-17T08:34:35;99443.94;;;12.97;100.00
29903;BME280;30288;50.514;9.678;2023-05-17T08:36:40;99444.03;;;12.94;100.00
29903;BME280;30288;50.514;9.678;2023-05-17T08:38:46;99445.84;;;12.91;100.00
29903;BME280;30288;50.514;9.678;2023-05-17T08:40:53;99440.31;;;12.77;100.00
29903;BME280;30288;50.514;9.678;2023-05-17T08:43:02;99441.28;;;12.71;100.00
29903;BME280;30288;50.514;9.678;2023-05-17T08:45:10;99446.78;;;12.53;100.00
29903;BME280;30288;50.514;9.678;2023-05-17T08:47:15;99439.56;;;12.73;100.00
29903;BME280;30288;50.514;9.678;2023-05-17T08:49:30;99442.13;;;13.02;100.00
29903;BME280;30288;50.514;9.678;2023-05-17T08:51:40;99434.97;;;13.78;100.00
29903;BME280;30288;50.514;9.678;2023-05-17T08:53:46;99435.47;;;13.89;100.00
29903;BME280;30288;50.514;9.678;2023-05-17T08:55:57;99432.59;;;14.01;100.00
29903;BME280;30288;50.514;9.678;2023-05-17T08:58:06;99434.41;;;13.69;100.00
29903;BME280;30288;50.514;9.678;2023-05-17T09:00:17;99438.47;;;13.74;100.00
29903;BME280;30288;50.514;9.678;2023-05-17T09:02:29;99446.47;;;13.61;100.00
29903;BME280;30288;50.514;9.678;2023-05-17T09:04:36;99442.75;;;13.43;100.00
29903;BME280;30288;50.514;9.678;2023-05-17T09:06:42;99443.28;;;13.25;100.00
29903;BME280;30288;50.514;9.678;2023-05-17T09:08:49;99445.25;;;13.13;100.00
29903;BME280;30288;50.514;9.678;2023-05-17T09:10:56;99452.00;;;12.81;100.00
29903;BME280;30288;50.514;9.678;2023-05-17T09:13:11;99450.16;;;12.87;100.00
29903;BME280;30288;50.514;9.678;2023-05-17T09:15:19;99453.91;;;13.03;100.00
29903;BME280;30288;50.514;9.678;2023-05-17T09:17:25;99457.50;;;12.96;100.00
29903;BME280;30288;50.514;9.678;2023-05-17T09:19:31;99459.72;;;13.07;100.00
29903;BME280;30288;50.514;9.678;2023-05-17T09:21:37;99453.84;;;13.06;100.00
29903;BME280;30288;50.514;9.678;2023-05-17T09:23:43;99454.81;;;13.35;100.00
29903;BME280;30288;50.514;9.678;2023-05-17T09:26:07;99464.16;;;13.62;100.00
29903;BME280;30288;50.514;9.678;2023-05-17T09:28:17;99456.41;;;13.67;100.00
29903;BME280;30288;50.514;9.678;2023-05-17T09:30:26;99453.22;;;13.89;100.00
29903;BME280;30288;50.514;9.678;2023-05-17T09:32:32;99454.50;;;14.02;100.00
29903;BME280;30288;50.514;9.678;2023-05-17T09:34:39;99453.47;;;14.36;100.00
29903;BME280;30288;50.514;9.678;2023-05-17T09:36:44;99449.72;;;14.99;100.00
29903;BME280;30288;50.514;9.678;2023-05-17T09:38:53;99448.78;;;14.76;100.00
29903;BME280;30288;50.514;9.678;2023-05-17T09:41:00;99448.25;;;14.67;100.00
29903;BME280;30288;50.514;9.678;2023-05-17T09:43:16;99460.06;;;14.41;100.00
29903;BME280;30288;50.514;9.678;2023-05-17T09:45:26;99453.09;;;13.92;100.00
29903;BME280;30288;50.514;9.678;2023-05-17T09:47:32;99462.78;;;14.08;100.00
29903;BME280;30288;50.514;9.678;2023-05-17T09:49:38;99464.03;;;13.94;100.00
29903;BME280;30288;50.514;9.678;2023-05-17T09:51:47;99464.31;;;13.56;100.00
29903;BME280;30288;50.514;9.678;2023-05-17T09:53:53;99458.22;;;13.63;100.00
29903;BME280;30288;50.514;9.678;2023-05-17T09:56:01;99455.59;;;13.66;100.00
29903;BME280;30288;50.514;9.678;2023-05-17T09:58:07;99467.78;;;14.11;100.00
29903;BME280;30288;50.514;9.678;2023-05-17T10:00:16;99461.03;;;14.10;100.00
29903;BME280;30288;50.514;9.678;2023-05-17T10:02:27;99463.25;;;13.92;100.00
29903;BME280;30288;50.514;9.678;2023-05-17T10:04:34;99456.41;;;13.67;100.00
29903;BME280;30288;50.514;9.678;2023-05-17T10:06:41;99463.56;;;14.10;100.00
29903;BME280;30288;50.514;9.678;2023-05-17T10:08:56;99459.31;;;14.64;100.00
29903;BME280;30288;50.514;9.678;2023-05-17T10:11:06;99459.25;;;14.67;100.00
29903;BME280;30288;50.514;9.678;2023-05-17T10:13:12;99462.22;;;14.78;100.00
29903;BME280;30288;50.514;9.678;2023-05-17T10:15:23;99460.00;;;14.69;100.00
29903;BME280;30288;50.514;9.678;2023-05-17T10:17:29;99460.78;;;14.71;100.00
29903;BME280;30288;50.514;9.678;2023-05-17T10:19:37;99463.53;;;14.65;100.00
29903;BME280;30288;50.514;9.678;2023-05-17T10:21:43;99449.41;;;15.08;100.00
29903;BME280;30288;50.514;9.678;2023-05-17T10:23:49;99450.84;;;15.15;100.00
29903;BME280;30288;50.514;9.678;2023-05-17T10:25:55;99450.94;;;15.12;100.00
29903;BME280;30288;50.514;9.678;2023-05-17T10:28:01;99457.28;;;15.71;100.00
29903;BME280;30288;50.514;9.678;2023-05-17T10:30:10;99455.97;;;15.83;100.00
29903;BME280;30288;50.514;9.678;2023-05-17T10:32:21;99459.66;;;15.98;100.00
29903;BME280;30288;50.514;9.678;2023-05-17T10:34:28;99446.75;;;16.68;100.00
29903;BME280;30288;50.514;9.678;2023-05-17T10:36:34;99443.41;;;17.64;100.00
29903;BME280;30288;50.514;9.678;2023-05-17T10:38:40;99432.97;;;17.49;88.04
29903;BME280;30288;50.514;9.678;2023-05-17T10:40:46;99445.06;;;17.26;86.13
29903;BME280;30288;50.514;9.678;2023-05-17T10:42:55;99444.69;;;16.76;89.19
29903;BME280;30288;50.514;9.678;2023-05-17T10:45:01;99451.88;;;16.86;94.22
29903;BME280;30288;50.514;9.678;2023-05-17T10:47:06;99462.00;;;16.68;91.00
29903;BME280;30288;50.514;9.678;2023-05-17T10:49:17;99465.13;;;16.31;90.05
29903;BME280;30288;50.514;9.678;2023-05-17T10:51:31;99462.41;;;16.15;89.49
29903;BME280;30288;50.514;9.678;2023-05-17T10:54:07;99470.53;;;16.01;91.82
29903;BME280;30288;50.514;9.678;2023-05-17T10:56:16;99472.31;;;16.21;92.44
29903;BME280;30288;50.514;9.678;2023-05-17T10:58:25;99469.72;;;16.01;90.22
29903;BME280;30288;50.514;9.678;2023-05-17T11:00:37;99469.25;;;16.13;94.59
29903;BME280;30288;50.514;9.678;2023-05-17T11:02:43;99462.03;;;16.24;85.71
29903;BME280;30288;50.514;9.678;2023-05-17T11:04:53;99456.22;;;16.42;85.05
29903;BME280;30288;50.514;9.678;2023-05-17T11:07:27;99457.97;;;16.20;81.77
29903;BME280;30288;50.514;9.678;2023-05-17T11:09:34;99455.13;;;16.70;91.04
29903;BME280;30288;50.514;9.678;2023-05-17T11:12:03;99450.88;;;16.90;89.14
29903;BME280;30288;50.514;9.678;2023-05-17T11:14:09;99459.97;;;16.96;85.22